Bay Bridge — 3FCS5 — position and weather

sailwx.info

Track history (hours):
 
Tides and Currents Weather Stations Pressure Air Temp Water Temp Dewpoint Dewpoint Depression Visibility Wind Speed Wind Dir Waves Ship Positions

Bay Bridge

Last reported at 2014-Oct-28 08:33 UTC. Time now 2014-Oct-30 14:29 UTC.
Position N 35°08' E 139°44'.

Length 267 m; draft 10.4 m.

Type: Ship (hazmat cat A). MMSI: 354120000.

Date/timePositionNaut miles runAvg speedWind from/ knotsBaromVisibWave heightAir tempDewpointWater temp
2014-Oct-28 08:33N 35°08' E 139°44'1211.8
2014-Oct-28 07:34N 35°19' E 139°43'8 7.6
2014-Oct-28 06:33N 35°27' E 139°40'0 0.0
2014-Oct-28 05:33N 35°27' E 139°40'0 0.0
2014-Oct-28 04:33N 35°27' E 139°40'0 0.0
2014-Oct-28 03:33N 35°27' E 139°40'0 0.0
2014-Oct-28 02:33N 35°27' E 139°40'0 0.0
2014-Oct-28 01:33N 35°27' E 139°40'0 0.0
2014-Oct-28 00:33N 35°27' E 139°40'0 0.0
2014-Oct-27 23:33N 35°27' E 139°40'0 0.0
2014-Oct-27 22:33N 35°27' E 139°40'0 0.0
2014-Oct-27 21:33N 35°27' E 139°40'0 0.0
2014-Oct-27 20:30N 35°27' E 139°40'0 0.0
2014-Oct-27 19:30N 35°27' E 139°40'0 0.0
2014-Oct-27 18:33N 35°27' E 139°40'0 0.0
2014-Oct-27 17:33N 35°27' E 139°40'0 0.0
2014-Oct-27 16:33N 35°27' E 139°40'0 0.0
2014-Oct-27 15:33N 35°27' E 139°40'0 0.0
2014-Oct-27 14:33N 35°27' E 139°40'0 0.0
2014-Oct-27 13:33N 35°27' E 139°40'0 0.0
2014-Oct-27 12:33N 35°27' E 139°40'0 0.0
2014-Oct-27 11:33N 35°27' E 139°40'0 0.0
2014-Oct-27 10:33N 35°27' E 139°40'0 0.0
2014-Oct-27 09:33N 35°27' E 139°40'0 0.0
2014-Oct-27 08:33N 35°27' E 139°40'2 2.0
2014-Oct-27 07:33N 35°26' E 139°43'8 8.0
2014-Oct-27 06:33N 35°18' E 139°44'10 9.7
2014-Oct-27 05:33N 35°09' E 139°47'5 4.7
2014-Oct-27 04:31N 35°04' E 139°45'  
Track history (hours):
 
Tides and Currents Weather Stations Pressure Air Temp Water Temp Dewpoint Dewpoint Depression Visibility Wind Speed Wind Dir Waves Ship Positions

Bay Bridge

Last reported at 2014-Oct-28 08:33 UTC. Time now 2014-Oct-30 14:29 UTC.
Position N 35°08' E 139°44'.

Length 267 m; draft 10.4 m.

Type: Ship (hazmat cat A). MMSI: 354120000.

Date/timePositionNaut miles runAvg speedWind from/ knotsBaromVisibWave heightAir tempDewpointWater temp
2014-Oct-28 08:33N 35°08' E 139°44'1211.8
2014-Oct-28 07:34N 35°19' E 139°43'8 7.6
2014-Oct-28 06:33N 35°27' E 139°40'0 0.0
2014-Oct-28 05:33N 35°27' E 139°40'0 0.0
2014-Oct-28 04:33N 35°27' E 139°40'0 0.0
2014-Oct-28 03:33N 35°27' E 139°40'0 0.0
2014-Oct-28 02:33N 35°27' E 139°40'0 0.0
2014-Oct-28 01:33N 35°27' E 139°40'0 0.0
2014-Oct-28 00:33N 35°27' E 139°40'0 0.0
2014-Oct-27 23:33N 35°27' E 139°40'0 0.0
2014-Oct-27 22:33N 35°27' E 139°40'0 0.0
2014-Oct-27 21:33N 35°27' E 139°40'0 0.0
2014-Oct-27 20:30N 35°27' E 139°40'0 0.0
2014-Oct-27 19:30N 35°27' E 139°40'0 0.0
2014-Oct-27 18:33N 35°27' E 139°40'0 0.0
2014-Oct-27 17:33N 35°27' E 139°40'0 0.0
2014-Oct-27 16:33N 35°27' E 139°40'0 0.0
2014-Oct-27 15:33N 35°27' E 139°40'0 0.0
2014-Oct-27 14:33N 35°27' E 139°40'0 0.0
2014-Oct-27 13:33N 35°27' E 139°40'0 0.0
2014-Oct-27 12:33N 35°27' E 139°40'0 0.0
2014-Oct-27 11:33N 35°27' E 139°40'0 0.0
2014-Oct-27 10:33N 35°27' E 139°40'0 0.0
2014-Oct-27 09:33N 35°27' E 139°40'0 0.0
2014-Oct-27 08:33N 35°27' E 139°40'2 2.0
2014-Oct-27 07:33N 35°26' E 139°43'8 8.0
2014-Oct-27 06:33N 35°18' E 139°44'10 9.7
2014-Oct-27 05:33N 35°09' E 139°47'5 4.7
2014-Oct-27 04:31N 35°04' E 139°45'  

Dump ship's entire track history